Time;durP1;ratioP1;P1;durP2;ratioP2;P2;SDS_P1;SDS_P2;PMS_P1;PMS_P2;Temp;Humidity;BMP_temperature;BMP_pressure;BME280_temperature;BME280_humidity;BME280_pressure;Samples;Min_cycle;Max_cycle;Signal;HPM_P1;HPM_P2
2022/01/08 00:00:44;;;;;;;27.10;10.68;;;;;;;-0.62;100.00;99713.16;5171673;27;20490;-51
2022/01/08 00:03:11;;;;;;;27.08;10.68;;;;;;;-0.64;100.00;99710.72;5171740;27;20054;-53
2022/01/08 00:05:37;;;;;;;28.63;10.07;;;;;;;-0.62;100.00;99708.59;5171778;27;20400;-53
2022/01/08 00:08:04;;;;;;;24.48;9.73;;;;;;;-0.57;100.00;99702.34;5171542;27;20050;-52
2022/01/08 00:10:31;;;;;;;24.92;10.75;;;;;;;-0.56;100.00;99703.97;5171766;27;20505;-53
2022/01/08 00:13:01;;;;;;;21.45;9.63;;;;;;;-0.55;100.00;99694.81;5172305;27;20054;-50
2022/01/08 00:15:27;;;;;;;22.27;9.68;;;;;;;-0.60;100.00;99700.22;5175268;27;20054;-51
2022/01/08 00:17:54;;;;;;;31.38;10.50;;;;;;;-0.64;100.00;99697.28;5175061;27;20046;-51
2022/01/08 00:20:20;;;;;;;26.33;10.38;;;;;;;-0.62;100.00;99702.41;5174995;27;20043;-50
2022/01/08 00:22:50;;;;;;;23.58;9.57;;;;;;;-0.67;100.00;99705.91;5174922;27;20133;-53
2022/01/08 00:25:16;;;;;;;21.05;10.18;;;;;;;-0.71;100.00;99711.03;5175111;27;20057;-53
2022/01/08 00:27:43;;;;;;;27.67;9.40;;;;;;;-0.85;100.00;99710.03;5174925;27;20079;-51
2022/01/08 00:30:10;;;;;;;23.15;9.65;;;;;;;-1.06;100.00;99706.63;5174760;27;20131;-52
2022/01/08 00:32:36;;;;;;;23.23;10.07;;;;;;;-1.31;100.00;99704.00;5175029;27;20058;-53
2022/01/08 00:35:03;;;;;;;21.83;9.00;;;;;;;-1.43;100.00;99715.06;5174895;27;20548;-51
2022/01/08 00:37:30;;;;;;;22.48;9.68;;;;;;;-1.56;100.00;99711.06;5174952;27;20058;-50
2022/01/08 00:39:56;;;;;;;31.33;9.93;;;;;;;-1.65;100.00;99723.44;5174613;27;20056;-52
2022/01/08 00:42:22;;;;;;;20.85;10.02;;;;;;;-1.75;100.00;99718.06;5174933;27;20085;-49
2022/01/08 00:44:49;;;;;;;26.83;9.45;;;;;;;-1.88;100.00;99716.72;5174554;27;20046;-53
2022/01/08 00:47:15;;;;;;;25.27;9.32;;;;;;;-1.99;100.00;99715.13;5174974;27;20145;-49
2022/01/08 00:49:42;;;;;;;27.00;10.48;;;;;;;-2.04;100.00;99707.84;5174688;27;20042;-50
2022/01/08 00:52:08;;;;;;;22.88;9.93;;;;;;;-2.11;100.00;99711.88;5174570;27;20050;-50
2022/01/08 00:54:36;;;;;;;23.77;9.85;;;;;;;-2.24;100.00;99702.44;5174779;27;20157;-49
2022/01/08 00:57:03;;;;;;;23.52;8.90;;;;;;;-2.31;100.00;99688.47;5174834;27;20421;-53
2022/01/08 00:59:29;;;;;;;23.75;9.73;;;;;;;-2.39;100.00;99690.63;5174429;27;20393;-48
2022/01/08 01:01:56;;;;;;;22.58;9.52;;;;;;;-2.44;100.00;99693.28;5174650;27;20050;-52
2022/01/08 01:04:23;;;;;;;25.13;9.80;;;;;;;-2.50;100.00;99683.63;5174624;27;20098;-50
2022/01/08 01:06:49;;;;;;;23.45;9.70;;;;;;;-2.52;100.00;99675.03;5174559;27;20137;-50
2022/01/08 01:09:15;;;;;;;26.17;10.35;;;;;;;-2.58;100.00;99673.41;5174772;27;20532;-49
2022/01/08 01:11:41;;;;;;;28.98;10.20;;;;;;;-2.60;100.00;99675.53;5174853;27;20141;-49
2022/01/08 01:14:08;;;;;;;25.40;10.32;;;;;;;-2.63;100.00;99668.03;5174463;27;20794;-49
2022/01/08 01:16:34;;;;;;;27.55;10.38;;;;;;;-2.59;100.00;99661.06;5174338;27;20564;-49
2022/01/08 01:19:03;;;;;;;25.75;10.38;;;;;;;-2.55;100.00;99654.09;5174241;27;20161;-49
2022/01/08 01:21:29;;;;;;;26.38;10.85;;;;;;;-2.46;100.00;99644.44;5174397;27;20560;-49
2022/01/08 01:23:56;;;;;;;27.90;10.85;;;;;;;-2.46;100.00;99640.94;5174284;27;20109;-50
2022/01/08 01:26:25;;;;;;;24.45;11.48;;;;;;;-2.50;100.00;99651.41;5173936;27;20099;-51
2022/01/08 01:28:57;;;;;;;29.30;11.10;;;;;;;-2.57;100.00;99648.16;5174129;27;20050;-49
2022/01/08 01:43:17;;;;;;;21.15;10.02;;;;;;;-2.79;100.00;99645.72;5109623;28;20043;-50
2022/01/08 01:48:26;;;;;;;23.83;10.63;;;;;;;-2.86;100.00;99642.50;5162092;27;20164;-51
2022/01/08 01:50:53;;;;;;;23.95;10.77;;;;;;;-2.89;100.00;99643.03;5174289;27;20046;-49
2022/01/08 01:53:20;;;;;;;26.33;10.02;;;;;;;-2.98;100.00;99640.03;5174085;27;20050;-51
2022/01/08 01:55:48;;;;;;;19.45;9.88;;;;;;;-3.06;100.00;99629.81;5173912;27;20061;-53
2022/01/08 01:58:15;;;;;;;24.13;9.60;;;;;;;-3.16;100.00;99622.56;5173958;27;20047;-50
2022/01/08 02:00:43;;;;;;;26.33;10.30;;;;;;;-3.16;100.00;99625.22;5173775;27;20089;-53
2022/01/08 02:03:09;;;;;;;22.17;9.25;;;;;;;-3.20;100.00;99617.97;5173831;27;20054;-54
2022/01/08 02:05:36;;;;;;;21.80;10.63;;;;;;;-3.23;100.00;99616.63;5173601;27;20428;-52
2022/01/08 02:08:03;;;;;;;32.65;10.85;;;;;;;-3.25;100.00;99613.41;5173959;27;20166;-52
2022/01/08 02:10:29;;;;;;;24.75;9.95;;;;;;;-3.26;100.00;99611.78;5173564;27;20106;-53
2022/01/08 02:12:55;;;;;;;19.38;10.35;;;;;;;-3.24;100.00;99611.50;5173095;27;20102;-53
2022/01/08 02:15:22;;;;;;;22.60;9.88;;;;;;;-3.28;100.00;99613.91;5173219;27;20046;-51
2022/01/08 02:17:48;;;;;;;19.67;8.75;;;;;;;-3.36;100.00;99603.72;5173289;27;20497;-51
2022/01/08 02:20:15;;;;;;;18.95;8.52;;;;;;;-3.39;100.00;99602.34;5173354;27;20050;-51
2022/01/08 02:22:41;;;;;;;20.67;9.30;;;;;;;-3.39;100.00;99598.88;5173164;27;20046;-49
2022/01/08 02:25:08;;;;;;;21.17;9.50;;;;;;;-3.36;100.00;99595.66;5173278;27;20057;-50
2022/01/08 02:27:34;;;;;;;22.38;9.98;;;;;;;-3.40;100.00;99590.03;5173135;27;20078;-49
2022/01/08 02:30:00;;;;;;;26.73;10.45;;;;;;;-3.42;100.00;99594.84;5173333;27;20098;-50
2022/01/08 02:32:27;;;;;;;26.48;10.30;;;;;;;-3.42;100.00;99600.19;5172908;27;20063;-52
2022/01/08 02:34:54;;;;;;;24.67;9.65;;;;;;;-3.45;100.00;99600.72;5173195;27;20046;-50
2022/01/08 02:37:25;;;;;;;21.27;9.15;;;;;;;-3.51;100.00;99596.41;5171780;27;20046;-53
2022/01/08 02:39:52;;;;;;;25.45;9.80;;;;;;;-3.55;100.00;99600.66;5173047;27;20046;-49
2022/01/08 02:42:19;;;;;;;23.15;10.00;;;;;;;-3.52;100.00;99591.31;5172792;27;20081;-49
2022/01/08 02:44:48;;;;;;;23.08;10.27;;;;;;;-3.57;100.00;99597.44;5172824;27;20046;-50
2022/01/08 02:47:15;;;;;;;23.27;9.95;;;;;;;-3.60;100.00;99601.47;5173275;27;20092;-50
2022/01/08 02:49:42;;;;;;;21.98;9.65;;;;;;;-3.59;100.00;99608.44;5173116;27;20053;-53
2022/01/08 02:52:08;;;;;;;24.15;9.40;;;;;;;-3.62;100.00;99602.78;5173158;27;20475;-49
2022/01/08 02:54:35;;;;;;;24.02;9.38;;;;;;;-3.63;100.00;99606.50;5172975;27;20177;-50
2022/01/08 02:57:01;;;;;;;28.00;10.60;;;;;;;-3.67;100.00;99606.22;5173191;27;20173;-50
2022/01/08 02:59:28;;;;;;;27.23;9.80;;;;;;;-3.67;100.00;99605.44;5172611;27;20053;-53
2022/01/08 03:01:54;;;;;;;22.65;8.68;;;;;;;-3.68;100.00;99617.22;5172805;27;20091;-50
2022/01/08 03:04:21;;;;;;;19.48;9.30;;;;;;;-3.71;100.00;99612.38;5172477;27;20054;-48
2022/01/08 03:06:47;;;;;;;25.30;8.93;;;;;;;-3.75;100.00;99624.69;5172523;27;20050;-50
2022/01/08 03:09:14;;;;;;;23.77;9.00;;;;;;;-3.80;100.00;99620.91;5172482;27;20046;-50
2022/01/08 03:11:43;;;;;;;24.35;8.63;;;;;;;-3.87;100.00;99622.19;5172514;27;20132;-51
2022/01/08 03:14:09;;;;;;;20.52;8.55;;;;;;;-3.81;100.00;99619.28;5172185;27;20173;-51
2022/01/08 03:16:36;;;;;;;23.80;9.32;;;;;;;-3.73;100.00;99623.38;5172514;27;20096;-50
2022/01/08 03:19:10;;;;;;;21.67;8.57;;;;;;;-3.84;100.00;99635.88;5172574;27;20072;-50
2022/01/08 03:21:38;;;;;;;17.42;8.35;;;;;;;-3.89;100.00;99635.06;5172268;27;20137;-51
2022/01/08 03:24:07;;;;;;;23.40;7.75;;;;;;;-3.89;100.00;99637.72;5172514;27;20054;-49
2022/01/08 03:26:33;;;;;;;18.60;7.93;;;;;;;-3.98;100.00;99642.75;5172107;27;20152;-53
2022/01/08 03:29:00;;;;;;;20.50;7.40;;;;;;;-4.04;100.00;99655.28;5172400;27;20047;-51
2022/01/08 03:31:27;;;;;;;19.08;7.53;;;;;;;-4.02;100.00;99652.38;5172123;27;20057;-52
2022/01/08 03:33:54;;;;;;;23.77;7.57;;;;;;;-4.11;100.00;99652.03;5172181;27;20110;-51
2022/01/08 03:36:22;;;;;;;25.15;6.82;;;;;;;-4.10;100.00;99660.88;5172137;27;20046;-52
2022/01/08 03:38:49;;;;;;;18.40;7.20;;;;;;;-4.19;100.00;99667.78;5172112;27;20054;-50
2022/01/08 03:41:15;;;;;;;14.35;6.53;;;;;;;-4.21;100.00;99673.38;5172062;27;20050;-49
2022/01/08 03:43:41;;;;;;;14.38;7.15;;;;;;;-4.30;100.00;99677.56;5172047;27;20042;-49
2022/01/08 03:46:10;;;;;;;14.52;6.68;;;;;;;-4.29;100.00;99679.19;5172260;27;20057;-49
2022/01/08 03:48:45;;;;;;;16.77;6.90;;;;;;;-4.31;100.00;99681.31;5174201;27;20049;-49
2022/01/08 03:51:13;;;;;;;19.05;7.35;;;;;;;-4.22;100.00;99679.78;5175976;27;20057;-50
2022/01/08 03:53:39;;;;;;;15.80;7.28;;;;;;;-4.16;100.00;99688.69;5175626;27;20050;-51
2022/01/08 03:56:06;;;;;;;21.83;7.30;;;;;;;-4.18;100.00;99690.81;5175810;27;20042;-53
2022/01/08 03:58:32;;;;;;;12.60;6.60;;;;;;;-4.22;100.00;99700.41;5175436;27;20046;-52
2022/01/08 04:00:58;;;;;;;15.15;6.88;;;;;;;-4.23;100.00;99693.41;5175663;27;20505;-49
2022/01/08 04:03:25;;;;;;;16.38;6.47;;;;;;;-4.21;100.00;99699.34;5175498;27;20404;-51
2022/01/08 04:05:52;;;;;;;16.15;6.88;;;;;;;-4.20;100.00;99698.25;5175333;27;20140;-51
2022/01/08 04:08:19;;;;;;;16.23;6.60;;;;;;;-4.17;100.00;99695.88;5175534;27;20050;-50
2022/01/08 04:10:45;;;;;;;16.50;6.20;;;;;;;-4.19;100.00;99695.34;5175401;27;20050;-51
2022/01/08 04:13:15;;;;;;;12.80;5.90;;;;;;;-4.17;100.00;99695.09;5174938;27;20373;-49
2022/01/08 04:15:43;;;;;;;15.32;5.55;;;;;;;-4.22;100.00;99681.66;5175244;27;20500;-50
2022/01/08 04:18:10;;;;;;;15.60;5.65;;;;;;;-4.23;100.00;99690.75;5175551;27;20133;-50
2022/01/08 04:20:50;;;;;;;11.60;5.68;;;;;;;-4.32;100.00;99685.06;5175073;27;20053;-49
2022/01/08 04:23:20;;;;;;;13.98;6.57;;;;;;;-4.29;100.00;99681.88;5175307;27;20509;-49
2022/01/08 04:25:46;;;;;;;14.57;6.22;;;;;;;-4.28;100.00;99680.81;5175125;27;20049;-50
2022/01/08 04:28:13;;;;;;;13.52;5.82;;;;;;;-4.30;100.00;99681.06;5175081;27;20061;-52
2022/01/08 04:30:39;;;;;;;15.48;5.97;;;;;;;-4.28;100.00;99678.13;5175010;27;20050;-51
2022/01/08 04:33:06;;;;;;;17.73;6.35;;;;;;;-4.32;100.00;99669.81;5174961;27;20089;-52
2022/01/08 04:35:32;;;;;;;20.20;7.22;;;;;;;-4.30;100.00;99672.22;5175098;27;20050;-50
2022/01/08 04:37:59;;;;;;;17.08;6.07;;;;;;;-4.41;100.00;99657.13;5174944;27;20051;-51
2022/01/08 04:40:25;;;;;;;16.48;5.78;;;;;;;-4.41;100.00;99652.59;5174933;27;20146;-53
2022/01/08 04:42:51;;;;;;;14.43;6.03;;;;;;;-4.41;100.00;99652.59;5174626;27;20060;-50
2022/01/08 04:45:18;;;;;;;17.88;6.35;;;;;;;-4.51;100.00;99641.78;5175205;27;20046;-49
2022/01/08 04:47:44;;;;;;;15.35;6.25;;;;;;;-4.50;100.00;99644.22;5174721;27;20046;-50
2022/01/08 04:50:12;;;;;;;18.27;6.18;;;;;;;-4.51;100.00;99639.91;5175076;27;20508;-50
2022/01/08 04:52:38;;;;;;;16.60;5.68;;;;;;;-4.59;100.00;99639.59;5174849;27;20050;-50
2022/01/08 04:55:06;;;;;;;18.30;6.05;;;;;;;-4.65;100.00;99637.91;5174565;27;20055;-49
2022/01/08 04:57:32;;;;;;;18.08;6.28;;;;;;;-4.66;100.00;99649.69;5174611;27;20075;-50
2022/01/08 04:59:58;;;;;;;11.23;5.85;;;;;;;-4.79;100.00;99643.69;5173505;27;20074;-49
2022/01/08 05:02:24;;;;;;;24.70;7.18;;;;;;;-4.80;100.00;99650.09;5174573;27;20050;-50
2022/01/08 05:04:51;;;;;;;13.20;5.03;;;;;;;-4.84;100.00;99659.66;5174470;27;20085;-50
2022/01/08 05:07:17;;;;;;;14.57;6.20;;;;;;;-4.87;100.00;99646.78;5174525;27;20410;-49
2022/01/08 05:09:43;;;;;;;14.00;5.18;;;;;;;-4.89;100.00;99653.47;5174284;27;20056;-49
2022/01/08 05:12:10;;;;;;;17.65;5.25;;;;;;;-4.97;100.00;99644.81;5174643;27;20077;-49
2022/01/08 05:14:36;;;;;;;15.85;6.00;;;;;;;-4.93;100.00;99658.50;5173727;27;20531;-51
2022/01/08 05:17:03;;;;;;;13.55;5.75;;;;;;;-4.89;100.00;99656.13;5174721;27;20844;-49
2022/01/08 05:19:41;;;;;;;17.42;6.53;;;;;;;-4.89;100.00;99656.94;5174141;27;20084;-50
2022/01/08 05:22:09;;;;;;;12.07;5.05;;;;;;;-4.92;100.00;99652.09;5174075;27;20154;-50
2022/01/08 05:24:35;;;;;;;15.18;6.05;;;;;;;-4.89;100.00;99654.28;5174120;27;20188;-49
2022/01/08 05:27:03;;;;;;;18.95;6.13;;;;;;;-4.86;100.00;99664.47;5173955;27;20066;-50
2022/01/08 05:29:30;;;;;;;16.05;6.45;;;;;;;-4.81;100.00;99672.53;5174231;27;20053;-49
2022/01/08 05:31:56;;;;;;;25.23;7.95;;;;;;;-4.78;100.00;99665.88;5174093;27;20428;-50
2022/01/08 05:34:23;;;;;;;25.15;8.90;;;;;;;-4.74;100.00;99672.34;5174118;27;20058;-50
2022/01/08 05:36:49;;;;;;;23.60;9.65;;;;;;;-4.92;100.00;99670.81;5173900;27;20401;-52
2022/01/08 05:39:15;;;;;;;18.27;8.25;;;;;;;-4.85;100.00;99665.28;5174143;27;20050;-50
2022/01/08 05:41:41;;;;;;;19.75;8.18;;;;;;;-4.91;100.00;99676.97;5173645;27;20053;-49
2022/01/08 05:44:07;;;;;;;21.25;8.43;;;;;;;-4.95;100.00;99665.16;5173551;27;20046;-52
2022/01/08 05:46:34;;;;;;;24.77;9.30;;;;;;;-4.88;100.00;99679.94;5173551;27;20436;-49
2022/01/08 05:49:02;;;;;;;18.63;7.55;;;;;;;-4.89;100.00;99686.38;5173836;27;20056;-50
2022/01/08 05:51:28;;;;;;;18.77;7.82;;;;;;;-4.89;100.00;99683.69;5173855;27;20511;-49
2022/01/08 05:53:55;;;;;;;11.93;5.63;;;;;;;-4.91;100.00;99677.78;5173625;27;20061;-50
2022/01/08 05:56:21;;;;;;;16.92;6.70;;;;;;;-4.91;100.00;99676.97;5173761;27;20417;-50
2022/01/08 05:58:48;;;;;;;15.50;6.40;;;;;;;-4.88;100.00;99671.13;5173527;27;20050;-53
2022/01/08 06:01:14;;;;;;;18.77;6.53;;;;;;;-4.92;100.00;99676.16;5173538;27;20077;-52
2022/01/08 06:03:41;;;;;;;15.30;7.03;;;;;;;-4.95;100.00;99668.63;5173345;27;20110;-52
2022/01/08 06:06:07;;;;;;;13.55;6.05;;;;;;;-4.96;100.00;99659.00;5173278;27;20042;-51
2022/01/08 06:08:33;;;;;;;15.45;5.72;;;;;;;-4.97;100.00;99665.41;5173415;27;20402;-51
2022/01/08 06:10:59;;;;;;;14.35;6.53;;;;;;;-5.09;100.00;99670.88;5173543;27;20077;-52
2022/01/08 06:13:26;;;;;;;12.68;5.13;;;;;;;-5.08;100.00;99669.03;5172741;27;20083;-51
2022/01/08 06:15:52;;;;;;;15.18;6.07;;;;;;;-5.22;100.00;99685.44;5173207;27;20094;-53
2022/01/08 06:18:19;;;;;;;19.08;5.95;;;;;;;-5.19;100.00;99691.34;5173358;27;20050;-49
2022/01/08 06:20:46;;;;;;;16.45;6.00;;;;;;;-5.16;100.00;99701.53;5173503;27;20057;-49
2022/01/08 06:23:12;;;;;;;15.45;5.68;;;;;;;-5.17;100.00;99697.25;5173409;27;20068;-50
2022/01/08 06:25:43;;;;;;;15.02;4.93;;;;;;;-5.15;100.00;99700.50;5173270;27;20042;-54
2022/01/08 06:28:09;;;;;;;15.07;5.28;;;;;;;-5.27;100.00;99700.59;5173203;27;20046;-50
2022/01/08 06:30:35;;;;;;;14.05;5.15;;;;;;;-5.27;100.00;99693.38;5173042;27;20050;-51
2022/01/08 06:33:02;;;;;;;12.68;4.88;;;;;;;-5.22;100.00;99706.00;5173135;27;20054;-48
2022/01/08 06:35:28;;;;;;;16.40;5.88;;;;;;;-5.19;100.00;99696.69;5172934;27;20140;-50
2022/01/08 06:37:55;;;;;;;14.23;6.28;;;;;;;-5.16;100.00;99696.16;5173427;27;20492;-49
2022/01/08 06:40:22;;;;;;;16.45;7.38;;;;;;;-5.26;100.00;99687.00;5172899;27;20050;-51
2022/01/08 06:42:48;;;;;;;20.33;8.25;;;;;;;-5.24;100.00;99698.22;5173337;27;20046;-48
2022/01/08 06:45:14;;;;;;;18.10;7.13;;;;;;;-5.18;100.00;99701.78;5173168;27;20050;-50
2022/01/08 06:47:43;;;;;;;21.73;8.25;;;;;;;-5.13;100.00;99706.38;5173133;27;20061;-49
2022/01/08 06:50:09;;;;;;;21.25;7.88;;;;;;;-5.10;100.00;99698.66;5173133;27;20094;-49
2022/01/08 06:52:35;;;;;;;23.90;8.27;;;;;;;-5.06;100.00;99707.81;5172808;27;20084;-50
2022/01/08 06:55:03;;;;;;;31.13;10.55;;;;;;;-5.06;100.00;99689.09;5172992;27;20096;-49
2022/01/08 06:57:29;;;;;;;44.70;13.23;;;;;;;-5.00;100.00;99685.44;5172798;27;20474;-48
2022/01/08 06:59:55;;;;;;;35.22;12.60;;;;;;;-5.03;100.00;99677.91;5172817;27;20508;-48
2022/01/08 07:02:21;;;;;;;34.08;12.65;;;;;;;-4.91;100.00;99680.44;5172465;27;20098;-49
2022/01/08 07:04:48;;;;;;;37.70;12.23;;;;;;;-4.89;100.00;99677.53;5172725;27;20050;-49
2022/01/08 07:07:14;;;;;;;30.10;11.52;;;;;;;-4.89;100.00;99664.16;5172645;27;20054;-50
2022/01/08 07:09:40;;;;;;;30.23;11.77;;;;;;;-4.80;100.00;99668.81;5172405;27;20042;-49
2022/01/08 07:12:08;;;;;;;29.58;10.07;;;;;;;-4.83;100.00;99655.13;5172042;27;20051;-48
2022/01/08 07:14:34;;;;;;;28.63;10.00;;;;;;;-4.84;100.00;99648.16;5171795;27;20050;-51
2022/01/08 07:17:00;;;;;;;25.63;9.63;;;;;;;-4.81;100.00;99631.59;5172429;27;20073;-49
2022/01/08 07:19:27;;;;;;;29.45;9.50;;;;;;;-4.63;100.00;99631.25;5172164;27;20046;-49
2022/01/08 07:21:53;;;;;;;30.52;11.20;;;;;;;-4.59;100.00;99626.22;5171881;27;20090;-49
2022/01/08 07:24:19;;;;;;;27.13;9.93;;;;;;;-4.57;100.00;99611.50;5171814;27;20527;-49
2022/01/08 07:26:45;;;;;;;30.77;10.05;;;;;;;-4.48;100.00;99592.31;5172482;27;20480;-49
2022/01/08 07:29:12;;;;;;;24.90;9.73;;;;;;;-4.46;100.00;99574.94;5172273;27;20104;-49
2022/01/08 07:31:39;;;;;;;31.63;9.60;;;;;;;-4.44;100.00;99553.25;5172301;27;20424;-49
2022/01/08 07:34:05;;;;;;;21.20;9.10;;;;;;;-4.32;100.00;99544.00;5171917;27;20424;-49
2022/01/08 07:36:31;;;;;;;25.48;9.82;;;;;;;-4.30;100.00;99517.78;5172196;27;20046;-48
2022/01/08 07:38:57;;;;;;;32.38;9.73;;;;;;;-4.44;100.00;99494.41;5172080;27;20476;-51
2022/01/08 07:41:23;;;;;;;29.73;9.75;;;;;;;-4.43;100.00;99471.91;5172075;27;20046;-49
2022/01/08 07:43:50;;;;;;;26.13;9.70;;;;;;;-4.51;100.00;99444.56;5171873;27;20046;-49
2022/01/08 07:46:17;;;;;;;33.05;11.27;;;;;;;-4.45;100.00;99445.41;5172068;27;20141;-52
2022/01/08 07:48:43;;;;;;;33.33;10.00;;;;;;;-4.46;100.00;99438.47;5172046;27;20050;-49
2022/01/08 07:51:10;;;;;;;33.20;10.82;;;;;;;-4.51;100.00;99417.00;5171936;27;20050;-50
2022/01/08 07:53:36;;;;;;;25.30;9.43;;;;;;;-4.39;100.00;99422.97;5171974;27;20054;-52
2022/01/08 07:56:02;;;;;;;23.08;8.80;;;;;;;-4.31;100.00;99400.25;5171913;27;20074;-50
2022/01/08 07:58:28;;;;;;;30.80;9.63;;;;;;;-4.27;100.00;99377.25;5171786;27;20046;-50
2022/01/08 08:00:58;;;;;;;22.75;9.93;;;;;;;-4.17;100.00;99361.22;5171639;27;20053;-49
2022/01/08 08:03:25;;;;;;;22.60;8.32;;;;;;;-4.17;100.00;99331.75;5172004;27;20111;-53
2022/01/08 08:05:51;;;;;;;22.67;7.95;;;;;;;-3.91;100.00;99311.19;5171908;27;20141;-52
2022/01/08 08:08:19;;;;;;;22.67;7.65;;;;;;;-3.81;100.00;99272.91;5171848;27;20190;-54
2022/01/08 08:10:47;;;;;;;15.45;7.35;;;;;;;-3.56;100.00;99232.72;5171805;27;20047;-52
2022/01/08 08:13:13;;;;;;;19.77;9.05;;;;;;;-3.31;100.00;99156.78;5171256;27;20046;-53
2022/01/08 08:15:40;;;;;;;21.55;8.60;;;;;;;-2.84;100.00;99066.97;5171168;27;20133;-51
2022/01/08 08:18:06;;;;;;;25.13;9.77;;;;;;;-2.58;100.00;98937.16;5171708;27;20057;-52
2022/01/08 08:20:33;;;;;;;23.20;9.43;;;;;;;-2.37;100.00;98828.47;5171595;27;20501;-49
2022/01/08 08:22:59;;;;;;;17.73;7.97;;;;;;;-2.36;100.00;98725.38;5171399;27;20106;-49
2022/01/08 08:25:26;;;;;;;18.40;8.50;;;;;;;-2.11;100.00;98646.31;5171533;27;20057;-50
2022/01/08 08:27:52;;;;;;;19.92;8.85;;;;;;;-2.09;100.00;98566.25;5171188;27;20517;-50
2022/01/08 08:30:18;;;;;;;17.02;7.95;;;;;;;-1.95;100.00;98528.66;5171778;27;20461;-49
2022/01/08 08:32:45;;;;;;;16.80;6.90;;;;;;;-2.18;100.00;98495.50;5171343;27;20050;-50
2022/01/08 08:35:11;;;;;;;16.00;7.13;;;;;;;-2.05;100.00;98481.28;5174675;27;20512;-50
2022/01/08 08:37:38;;;;;;;15.48;6.97;;;;;;;-1.72;100.00;98473.91;5174739;27;20054;-52
2022/01/08 08:40:05;;;;;;;19.27;6.60;;;;;;;-1.89;100.00;98441.50;5174913;27;20141;-50
2022/01/08 08:42:32;;;;;;;19.75;7.93;;;;;;;-2.10;100.00;98424.97;5174605;27;20057;-49
2022/01/08 08:44:58;;;;;;;18.23;8.15;;;;;;;-2.17;100.00;98435.31;5174533;27;20050;-50
2022/01/08 08:47:25;;;;;;;21.05;8.98;;;;;;;-2.49;100.00;98444.28;5174940;27;20042;-49
2022/01/08 08:49:51;;;;;;;18.65;7.75;;;;;;;-2.57;100.00;98459.16;5174805;27;20042;-50
2022/01/08 08:52:17;;;;;;;18.70;8.27;;;;;;;-2.54;100.00;98485.41;5174835;27;20046;-50
2022/01/08 08:54:44;;;;;;;26.08;8.95;;;;;;;-2.55;100.00;98491.09;5174816;27;20164;-49
2022/01/08 08:57:10;;;;;;;20.15;8.23;;;;;;;-2.58;100.00;98499.72;5175308;27;20152;-54
2022/01/08 08:59:37;;;;;;;18.80;7.85;;;;;;;-2.71;100.00;98493.22;5174530;27;20067;-51
2022/01/08 09:02:04;;;;;;;25.05;8.02;;;;;;;-2.56;100.00;98502.91;5174806;27;20050;-49
2022/01/08 09:04:30;;;;;;;20.55;8.27;;;;;;;-2.76;100.00;98478.03;5174214;27;20454;-50
2022/01/08 09:06:57;;;;;;;23.60;9.77;;;;;;;-2.91;100.00;98452.22;5174352;27;20050;-49
2022/01/08 09:09:24;;;;;;;29.77;10.65;;;;;;;-2.94;100.00;98449.34;5174598;27;20051;-50
2022/01/08 09:11:51;;;;;;;27.98;10.10;;;;;;;-3.00;100.00;98455.88;5174338;27;20046;-51
2022/01/08 09:14:17;;;;;;;21.67;8.85;;;;;;;-3.10;100.00;98452.28;5173582;27;20053;-50
2022/01/08 09:16:46;;;;;;;23.60;7.00;;;;;;;-3.23;100.00;98457.56;5174224;27;20048;-51
2022/01/08 09:19:13;;;;;;;16.75;6.63;;;;;;;-3.23;100.00;98468.28;5174531;27;20050;-52
2022/01/08 09:21:39;;;;;;;17.88;6.45;;;;;;;-3.23;100.00;98474.47;5174018;27;20046;-51
2022/01/08 09:24:06;;;;;;;17.60;6.80;;;;;;;-3.16;100.00;98488.31;5174349;27;20054;-50
2022/01/08 09:26:32;;;;;;;26.88;6.82;;;;;;;-3.20;100.00;98473.06;5174127;27;20046;-49
2022/01/08 09:28:59;;;;;;;20.23;7.55;;;;;;;-3.13;100.00;98494.97;5174234;27;20049;-51
2022/01/08 09:31:25;;;;;;;15.30;7.63;;;;;;;-3.08;100.00;98509.06;5174051;27;20050;-49
2022/01/08 09:33:52;;;;;;;17.10;7.05;;;;;;;-3.13;100.00;98498.44;5174081;27;20057;-53
2022/01/08 09:36:18;;;;;;;12.77;7.28;;;;;;;-3.17;100.00;98493.94;5174039;27;20053;-49
2022/01/08 09:38:44;;;;;;;11.32;5.00;;;;;;;-3.13;100.00;98495.75;5173983;27;20046;-50
2022/01/08 09:41:11;;;;;;;16.75;6.07;;;;;;;-3.11;100.00;98479.38;5173918;27;20043;-51
2022/01/08 09:43:37;;;;;;;16.90;6.53;;;;;;;-2.90;100.00;98494.06;5173672;27;20050;-50
2022/01/08 09:46:05;;;;;;;14.70;6.45;;;;;;;-2.79;100.00;98469.75;5173254;27;20088;-49
2022/01/08 09:48:31;;;;;;;15.95;6.95;;;;;;;-2.71;100.00;98447.63;5173911;27;20420;-54
2022/01/08 09:50:58;;;;;;;14.00;6.82;;;;;;;-2.67;100.00;98427.94;5173915;27;20046;-50
2022/01/08 09:53:24;;;;;;;14.68;6.65;;;;;;;-2.69;100.00;98410.56;5173679;27;20057;-51
2022/01/08 09:55:50;;;;;;;15.45;7.22;;;;;;;-2.57;100.00;98432.31;5173938;27;20481;-51
2022/01/08 09:58:17;;;;;;;18.27;5.63;;;;;;;-2.53;100.00;98406.50;5173651;27;20088;-52
2022/01/08 10:00:45;;;;;;;18.13;5.45;;;;;;;-2.55;100.00;98375.69;5173698;27;20050;-53
2022/01/08 10:03:18;;;;;;;16.23;6.60;;;;;;;-2.57;100.00;98370.59;5173339;27;20093;-51
2022/01/08 10:05:46;;;;;;;13.05;5.93;;;;;;;-2.63;100.00;98359.19;5173449;27;20056;-53
2022/01/08 10:08:14;;;;;;;19.85;6.90;;;;;;;-2.57;100.00;98362.56;5173544;27;20401;-51
2022/01/08 10:10:41;;;;;;;21.52;5.60;;;;;;;-2.54;100.00;98356.59;5173772;27;20119;-51
2022/01/08 10:13:22;;;;;;;20.10;7.40;;;;;;;-2.81;100.00;98352.00;5173167;27;20497;-49
2022/01/08 10:18:36;;;;;;;19.63;6.43;;;;;;;-2.75;100.00;98358.88;5173638;27;20094;-53
2022/01/08 10:21:18;;;;;;;21.42;7.53;;;;;;;-2.63;100.00;98359.19;5173136;27;20097;-53
2022/01/08 10:23:47;;;;;;;21.05;8.18;;;;;;;-2.54;100.00;98348.53;5172895;27;20048;-53
2022/01/08 10:26:16;;;;;;;20.77;7.22;;;;;;;-2.49;100.00;98348.44;5173423;27;20588;-50
2022/01/08 10:28:44;;;;;;;18.20;6.30;;;;;;;-2.59;100.00;98343.28;5172984;27;20137;-52
2022/01/08 10:31:13;;;;;;;14.32;6.45;;;;;;;-2.65;100.00;98339.09;5173296;27;20137;-53
2022/01/08 10:33:42;;;;;;;13.82;6.43;;;;;;;-2.50;100.00;98335.31;5172970;27;20050;-51
2022/01/08 10:36:09;;;;;;;10.07;5.60;;;;;;;-2.66;100.00;98332.94;5173037;27;20050;-52
2022/01/08 10:38:36;;;;;;;15.77;6.85;;;;;;;-2.60;100.00;98320.22;5172897;27;20042;-50
2022/01/08 10:41:03;;;;;;;15.20;6.20;;;;;;;-2.45;100.00;98341.38;5173017;27;20093;-50
2022/01/08 10:43:31;;;;;;;16.63;7.18;;;;;;;-2.51;100.00;98329.16;5172902;27;20103;-50
2022/01/08 10:46:10;;;;;;;24.42;7.65;;;;;;;-2.45;100.00;98321.81;5172680;27;20106;-49
2022/01/08 10:48:37;;;;;;;19.70;8.57;;;;;;;-2.49;100.00;98312.78;5172803;27;20085;-49
2022/01/08 10:51:13;;;;;;;24.42;7.82;;;;;;;-2.44;100.00;98309.97;5172733;27;20050;-49
2022/01/08 10:53:58;;;;;;;17.60;7.03;;;;;;;-2.34;100.00;98306.28;5172812;27;20049;-52
2022/01/08 10:56:27;;;;;;;17.95;7.85;;;;;;;-2.38;100.00;98306.09;5172102;27;20050;-50
2022/01/08 10:58:59;;;;;;;15.57;7.25;;;;;;;-2.30;100.00;98307.25;5172200;27;20046;-49
2022/01/08 11:01:43;;;;;;;14.23;7.20;;;;;;;-2.28;100.00;98294.34;5172831;27;20096;-48
2022/01/08 11:04:12;;;;;;;16.52;6.80;;;;;;;-2.17;100.00;98296.47;5172445;27;20054;-51
2022/01/08 11:06:51;;;;;;;14.65;7.22;;;;;;;-1.95;100.00;98303.00;5172378;27;20090;-50
2022/01/08 11:09:17;;;;;;;14.70;6.15;;;;;;;-1.81;100.00;98284.16;5172412;27;20500;-50
2022/01/08 11:11:44;;;;;;;16.05;6.18;;;;;;;-2.05;100.00;98292.50;5172604;27;20050;-50
2022/01/08 11:14:23;;;;;;;18.08;6.38;;;;;;;-2.21;100.00;98273.25;5171912;27;20109;-49
2022/01/08 11:16:51;;;;;;;18.48;6.30;;;;;;;-2.31;100.00;98279.63;5172478;27;20412;-49
2022/01/08 11:19:18;;;;;;;14.90;6.18;;;;;;;-2.42;100.00;98267.53;5172412;27;20053;-50
2022/01/08 11:21:47;;;;;;;12.40;6.25;;;;;;;-2.39;100.00;98280.34;5172477;27;20050;-49
2022/01/08 11:24:18;;;;;;;15.13;6.18;;;;;;;-2.37;100.00;98278.13;5172328;27;20054;-49
2022/01/08 11:26:47;;;;;;;15.30;6.53;;;;;;;-2.40;100.00;98281.41;5172248;27;20064;-51
2022/01/08 11:29:17;;;;;;;17.00;6.28;;;;;;;-2.37;100.00;98283.50;5172338;27;20050;-51
2022/01/08 11:31:45;;;;;;;13.80;6.05;;;;;;;-2.57;100.00;98292.78;5172248;27;20602;-51
2022/01/08 11:34:12;;;;;;;11.80;5.85;;;;;;;-2.59;100.00;98304.94;5172067;27;20050;-49